ANO361 YBAS-YBCS
Flight info
| Callsign | ANO361 |
|---|---|
| Flight time | 1h 48m |
| Altitude | 39000 |
| Route | AS J64 CS |
| Aircraft | E190/M-SDGHIRWYZ/EB1 |
Departure
| Time | 2026-05-06 03:55 |
|---|---|
| Airport | Alice Springs Airport (YBAS) |
Arrival
| Time | 2026-05-06 05:43 |
|---|---|
| Airport | Cairns International Airport (YBCS) |
| Time | Latitude | Longitude | Altitude | Speed | Heading |
|---|---|---|---|---|---|
| 2026-05-06 02:49 | -23.80337 | 133.90231 | 1791 ft | 0 kts | 71° |
| 2026-05-06 03:51 | -23.80337 | 133.90242 | 1792 ft | 2 kts | 99° |
| 2026-05-06 03:51 | -23.80352 | 133.90249 | 1790 ft | 3 kts | 175° |
| 2026-05-06 03:51 | -23.80369 | 133.90226 | 1792 ft | 6 kts | 252° |
| 2026-05-06 03:52 | -23.80354 | 133.90159 | 1791 ft | 11 kts | 298° |
| 2026-05-06 03:52 | -23.80312 | 133.90081 | 1792 ft | 13 kts | 301° |
| 2026-05-06 03:52 | -23.80335 | 133.89998 | 1791 ft | 15 kts | 211° |
| 2026-05-06 03:52 | -23.80416 | 133.89914 | 1790 ft | 17 kts | 268° |
| 2026-05-06 03:53 | -23.80359 | 133.89807 | 1789 ft | 19 kts | 301° |
| 2026-05-06 03:53 | -23.80278 | 133.89660 | 1790 ft | 26 kts | 301° |
| 2026-05-06 03:53 | -23.80179 | 133.89472 | 1789 ft | 31 kts | 295° |
| 2026-05-06 03:53 | -23.80130 | 133.89337 | 1791 ft | 8 kts | 2° |
| 2026-05-06 03:54 | -23.80121 | 133.89376 | 1791 ft | 5 kts | 122° |
| 2026-05-06 03:54 | -23.80210 | 133.89541 | 1789 ft | 60 kts | 121° |
| 2026-05-06 03:54 | -23.80551 | 133.90169 | 1790 ft | 129 kts | 121° |
| 2026-05-06 03:54 | -23.81062 | 133.91136 | 2242 ft | 153 kts | 122° |
| 2026-05-06 03:55 | -23.81585 | 133.92127 | 3150 ft | 152 kts | 121° |
| 2026-05-06 03:55 | -23.82060 | 133.93220 | 3701 ft | 170 kts | 104° |
| 2026-05-06 03:55 | -23.81805 | 133.94543 | 4231 ft | 202 kts | 59° |
| 2026-05-06 03:55 | -23.80530 | 133.95346 | 4907 ft | 229 kts | 13° |
| 2026-05-06 03:56 | -23.78839 | 133.95160 | 5392 ft | 260 kts | 347° |
| 2026-05-06 03:56 | -23.77072 | 133.94658 | 6264 ft | 267 kts | 346° |
| 2026-05-06 03:56 | -23.75218 | 133.94126 | 6867 ft | 284 kts | 353° |
| 2026-05-06 03:56 | -23.73226 | 133.94343 | 7392 ft | 294 kts | 25° |
| 2026-05-06 03:57 | -23.71630 | 133.95639 | 8122 ft | 292 kts | 56° |
| 2026-05-06 03:57 | -23.70604 | 133.97557 | 8947 ft | 296 kts | 66° |
| 2026-05-06 03:57 | -23.69632 | 133.99568 | 9841 ft | 304 kts | 62° |
| 2026-05-06 03:57 | -23.68561 | 134.01592 | 10509 ft | 319 kts | 60° |
| 2026-05-06 03:58 | -23.67407 | 134.03739 | 11144 ft | 332 kts | 60° |
| 2026-05-06 03:58 | -23.66223 | 134.05932 | 11985 ft | 338 kts | 58° |
| 2026-05-06 03:58 | -23.64970 | 134.08193 | 12623 ft | 352 kts | 58° |
| 2026-05-06 03:58 | -23.63707 | 134.10479 | 13450 ft | 361 kts | 57° |
| 2026-05-06 03:59 | -23.62401 | 134.12847 | 14401 ft | 363 kts | 57° |
| 2026-05-06 03:59 | -23.61061 | 134.15249 | 15258 ft | 371 kts | 57° |
| 2026-05-06 03:59 | -23.59704 | 134.17679 | 16250 ft | 376 kts | 57° |
| 2026-05-06 03:59 | -23.58332 | 134.20107 | 17090 ft | 381 kts | 56° |
| 2026-05-06 04:00 | -23.56933 | 134.22599 | 17930 ft | 388 kts | 57° |
| 2026-05-06 04:00 | -23.55518 | 134.25135 | 18706 ft | 393 kts | 57° |
| 2026-05-06 04:00 | -23.54093 | 134.27707 | 19412 ft | 398 kts | 57° |
| 2026-05-06 04:00 | -23.52655 | 134.30310 | 20130 ft | 402 kts | 56° |
| 2026-05-06 04:01 | -23.51199 | 134.32946 | 20858 ft | 407 kts | 57° |
| 2026-05-06 04:01 | -23.49762 | 134.35574 | 21553 ft | 411 kts | 57° |
| 2026-05-06 04:01 | -23.48298 | 134.38269 | 22239 ft | 415 kts | 56° |
| 2026-05-06 04:01 | -23.46817 | 134.40991 | 22903 ft | 419 kts | 57° |
| 2026-05-06 04:02 | -23.45331 | 134.43741 | 23520 ft | 424 kts | 56° |
| 2026-05-06 04:02 | -23.43832 | 134.46534 | 24044 ft | 428 kts | 56° |
| 2026-05-06 04:02 | -23.42324 | 134.49351 | 24494 ft | 433 kts | 56° |
| 2026-05-06 04:02 | -23.40800 | 134.52215 | 24953 ft | 438 kts | 56° |
| 2026-05-06 04:03 | -23.39271 | 134.55107 | 25405 ft | 443 kts | 56° |
| 2026-05-06 04:03 | -23.37732 | 134.58038 | 25871 ft | 448 kts | 56° |
| 2026-05-06 04:03 | -23.36194 | 134.60969 | 26305 ft | 452 kts | 56° |
| 2026-05-06 04:03 | -23.34627 | 134.63963 | 26661 ft | 458 kts | 55° |
| 2026-05-06 04:04 | -23.33039 | 134.67012 | 27081 ft | 463 kts | 55° |
| 2026-05-06 04:04 | -23.31444 | 134.70074 | 27481 ft | 468 kts | 54° |
| 2026-05-06 04:04 | -23.29833 | 134.73183 | 27879 ft | 472 kts | 54° |
| 2026-05-06 04:04 | -23.28233 | 134.76279 | 28251 ft | 476 kts | 54° |
| 2026-05-06 04:05 | -23.26601 | 134.79445 | 28612 ft | 480 kts | 54° |
| 2026-05-06 04:05 | -23.24964 | 134.82636 | 28968 ft | 484 kts | 54° |
| 2026-05-06 04:05 | -23.23313 | 134.85852 | 29307 ft | 488 kts | 54° |
| 2026-05-06 04:05 | -23.21660 | 134.89095 | 29630 ft | 492 kts | 54° |
| 2026-05-06 04:06 | -23.19991 | 134.92367 | 29943 ft | 496 kts | 54° |
| 2026-05-06 04:06 | -23.18328 | 134.95617 | 30224 ft | 499 kts | 54° |
| 2026-05-06 04:06 | -23.16639 | 134.98944 | 30496 ft | 502 kts | 54° |
| 2026-05-06 04:06 | -23.14959 | 135.02281 | 30685 ft | 505 kts | 54° |
| 2026-05-06 04:07 | -23.13253 | 135.05634 | 30989 ft | 506 kts | 53° |
| 2026-05-06 04:07 | -23.11546 | 135.08985 | 31402 ft | 505 kts | 53° |
| 2026-05-06 04:07 | -23.09841 | 135.12328 | 31800 ft | 505 kts | 53° |
| 2026-05-06 04:07 | -23.08163 | 135.15629 | 32194 ft | 504 kts | 53° |
| 2026-05-06 04:08 | -23.06470 | 135.18960 | 32570 ft | 504 kts | 53° |
| 2026-05-06 04:08 | -23.04770 | 135.22297 | 32905 ft | 505 kts | 52° |
| 2026-05-06 04:08 | -23.03075 | 135.25637 | 33278 ft | 505 kts | 52° |
| 2026-05-06 04:08 | -23.01381 | 135.28988 | 33645 ft | 505 kts | 52° |
| 2026-05-06 04:09 | -22.99694 | 135.32336 | 34016 ft | 504 kts | 52° |
| 2026-05-06 04:09 | -22.98031 | 135.35630 | 34341 ft | 504 kts | 52° |
| 2026-05-06 04:09 | -22.96329 | 135.39008 | 34643 ft | 504 kts | 52° |
| 2026-05-06 04:09 | -22.94671 | 135.42306 | 34924 ft | 503 kts | 52° |
| 2026-05-06 04:10 | -22.92994 | 135.45640 | 35191 ft | 503 kts | 52° |
| 2026-05-06 04:10 | -22.91316 | 135.48986 | 35462 ft | 502 kts | 52° |
| 2026-05-06 04:10 | -22.89644 | 135.52321 | 35711 ft | 502 kts | 52° |
| 2026-05-06 04:10 | -22.87975 | 135.55646 | 35960 ft | 501 kts | 52° |
| 2026-05-06 04:11 | -22.86330 | 135.58927 | 36198 ft | 501 kts | 52° |
| 2026-05-06 04:11 | -22.84668 | 135.62252 | 36412 ft | 501 kts | 52° |
| 2026-05-06 04:11 | -22.83008 | 135.65579 | 36639 ft | 501 kts | 52° |
| 2026-05-06 04:11 | -22.81348 | 135.68899 | 36867 ft | 500 kts | 52° |
| 2026-05-06 04:12 | -22.79690 | 135.72220 | 37082 ft | 500 kts | 52° |
| 2026-05-06 04:12 | -22.78036 | 135.75540 | 37270 ft | 500 kts | 52° |
| 2026-05-06 04:12 | -22.76386 | 135.78856 | 37472 ft | 499 kts | 52° |
| 2026-05-06 04:12 | -22.74735 | 135.82171 | 37664 ft | 499 kts | 52° |
| 2026-05-06 04:13 | -22.73033 | 135.85440 | 37850 ft | 495 kts | 49° |
| 2026-05-06 04:13 | -22.71273 | 135.88591 | 38038 ft | 495 kts | 49° |
| 2026-05-06 04:13 | -22.69496 | 135.91790 | 38229 ft | 495 kts | 49° |
| 2026-05-06 04:13 | -22.67717 | 135.95003 | 38421 ft | 494 kts | 49° |
| 2026-05-06 04:14 | -22.65967 | 135.98171 | 38623 ft | 494 kts | 49° |
| 2026-05-06 04:14 | -22.64199 | 136.01372 | 38752 ft | 494 kts | 49° |
| 2026-05-06 04:14 | -22.62435 | 136.04569 | 38912 ft | 494 kts | 49° |
| 2026-05-06 04:14 | -22.60668 | 136.07770 | 39065 ft | 493 kts | 49° |
| 2026-05-06 04:15 | -22.58920 | 136.10942 | 39279 ft | 491 kts | 49° |
| 2026-05-06 04:15 | -22.57181 | 136.14085 | 39267 ft | 495 kts | 49° |
| 2026-05-06 04:15 | -22.53614 | 136.20539 | 39275 ft | 502 kts | 49° |
| 2026-05-06 04:16 | -22.49986 | 136.27096 | 39126 ft | 512 kts | 49° |
| 2026-05-06 04:16 | -22.46318 | 136.33725 | 39146 ft | 515 kts | 50° |
| 2026-05-06 04:17 | -22.42647 | 136.40351 | 39139 ft | 516 kts | 49° |
| 2026-05-06 04:17 | -22.38951 | 136.47015 | 39139 ft | 516 kts | 49° |
| 2026-05-06 04:18 | -22.35268 | 136.53642 | 39105 ft | 516 kts | 50° |
| 2026-05-06 04:18 | -22.31572 | 136.60287 | 39133 ft | 515 kts | 49° |
| 2026-05-06 04:19 | -22.27896 | 136.66883 | 39131 ft | 514 kts | 49° |
| 2026-05-06 04:19 | -22.24197 | 136.73507 | 39129 ft | 515 kts | 49° |
| 2026-05-06 04:20 | -22.20588 | 136.79960 | 39093 ft | 515 kts | 49° |
| 2026-05-06 04:20 | -22.16895 | 136.86558 | 39134 ft | 512 kts | 49° |
| 2026-05-06 04:21 | -22.13817 | 136.92050 | 39128 ft | 513 kts | 49° |
| 2026-05-06 04:21 | -22.11034 | 136.97011 | 39127 ft | 513 kts | 49° |
| 2026-05-06 04:22 | -22.07335 | 137.03598 | 39123 ft | 512 kts | 49° |
| 2026-05-06 04:23 | -22.01795 | 137.13446 | 39127 ft | 511 kts | 49° |
| 2026-05-06 04:23 | -21.98127 | 137.19958 | 39124 ft | 511 kts | 49° |
| 2026-05-06 04:24 | -21.94431 | 137.26512 | 39118 ft | 511 kts | 49° |
| 2026-05-06 04:24 | -21.90730 | 137.33066 | 39119 ft | 511 kts | 49° |
| 2026-05-06 04:25 | -21.87032 | 137.39606 | 39111 ft | 510 kts | 49° |
| 2026-05-06 04:25 | -21.83360 | 137.46093 | 39115 ft | 510 kts | 49° |
| 2026-05-06 04:26 | -21.79663 | 137.52616 | 39114 ft | 510 kts | 49° |
| 2026-05-06 04:26 | -21.75962 | 137.59139 | 39108 ft | 510 kts | 49° |
| 2026-05-06 04:27 | -21.72285 | 137.65612 | 39113 ft | 509 kts | 50° |
| 2026-05-06 04:27 | -21.68590 | 137.72109 | 39103 ft | 508 kts | 50° |
| 2026-05-06 04:28 | -21.64913 | 137.78566 | 39103 ft | 509 kts | 49° |
| 2026-05-06 04:28 | -21.61219 | 137.85050 | 39105 ft | 508 kts | 49° |
| 2026-05-06 04:29 | -21.57542 | 137.91499 | 39095 ft | 506 kts | 50° |
| 2026-05-06 04:29 | -21.53895 | 137.97959 | 39098 ft | 505 kts | 50° |
| 2026-05-06 04:30 | -21.50239 | 138.04425 | 39108 ft | 505 kts | 49° |
| 2026-05-06 04:30 | -21.46605 | 138.10842 | 39095 ft | 505 kts | 49° |
| 2026-05-06 04:31 | -21.42948 | 138.17292 | 39089 ft | 505 kts | 49° |
| 2026-05-06 04:31 | -21.39283 | 138.23749 | 39089 ft | 505 kts | 49° |
| 2026-05-06 04:32 | -21.35619 | 138.30196 | 39089 ft | 505 kts | 49° |
| 2026-05-06 04:32 | -21.31985 | 138.36585 | 39084 ft | 505 kts | 49° |
| 2026-05-06 04:33 | -21.28318 | 138.43021 | 39085 ft | 505 kts | 49° |
| 2026-05-06 04:33 | -21.24660 | 138.49436 | 39081 ft | 504 kts | 49° |
| 2026-05-06 04:34 | -21.21023 | 138.55807 | 39079 ft | 504 kts | 49° |
| 2026-05-06 04:34 | -21.17357 | 138.62220 | 39075 ft | 503 kts | 49° |
| 2026-05-06 04:35 | -21.13711 | 138.68591 | 39071 ft | 503 kts | 49° |
| 2026-05-06 04:35 | -21.10042 | 138.74995 | 39036 ft | 503 kts | 49° |
| 2026-05-06 04:36 | -21.06998 | 138.80303 | 39068 ft | 502 kts | 49° |
| 2026-05-06 04:36 | -21.03333 | 138.86687 | 39067 ft | 502 kts | 49° |
| 2026-05-06 04:37 | -20.99681 | 138.93042 | 39060 ft | 502 kts | 49° |
| 2026-05-06 04:37 | -20.96030 | 138.99388 | 39061 ft | 502 kts | 49° |
| 2026-05-06 04:38 | -20.92360 | 139.05759 | 39069 ft | 501 kts | 49° |
| 2026-05-06 04:38 | -20.88714 | 139.12084 | 39058 ft | 502 kts | 49° |
| 2026-05-06 04:39 | -20.85039 | 139.18453 | 39056 ft | 502 kts | 49° |
| 2026-05-06 04:39 | -20.81377 | 139.24787 | 39050 ft | 501 kts | 49° |
| 2026-05-06 04:40 | -20.77698 | 139.31144 | 39051 ft | 501 kts | 49° |
| 2026-05-06 04:40 | -20.74062 | 139.37424 | 39039 ft | 501 kts | 49° |
| 2026-05-06 04:41 | -20.70395 | 139.43745 | 39056 ft | 500 kts | 49° |
| 2026-05-06 04:41 | -20.66722 | 139.50060 | 39044 ft | 499 kts | 48° |
| 2026-05-06 04:42 | -20.62902 | 139.56252 | 39046 ft | 498 kts | 47° |
| 2026-05-06 04:42 | -20.59095 | 139.62439 | 39025 ft | 498 kts | 47° |
| 2026-05-06 04:43 | -20.55316 | 139.68577 | 39052 ft | 497 kts | 47° |
| 2026-05-06 04:43 | -20.51508 | 139.74759 | 39039 ft | 497 kts | 47° |
| 2026-05-06 04:44 | -20.47707 | 139.80927 | 39027 ft | 497 kts | 47° |
| 2026-05-06 04:44 | -20.43929 | 139.87055 | 39032 ft | 497 kts | 47° |
| 2026-05-06 04:45 | -20.40124 | 139.93216 | 39035 ft | 496 kts | 48° |
| 2026-05-06 04:45 | -20.36312 | 139.99388 | 39017 ft | 496 kts | 47° |
| 2026-05-06 04:46 | -20.32528 | 140.05505 | 39015 ft | 497 kts | 48° |
| 2026-05-06 04:46 | -20.28718 | 140.11661 | 39014 ft | 497 kts | 47° |
| 2026-05-06 04:47 | -20.24930 | 140.17773 | 39012 ft | 496 kts | 47° |
| 2026-05-06 04:47 | -20.21189 | 140.23966 | 39011 ft | 498 kts | 49° |
| 2026-05-06 04:48 | -20.17348 | 140.30084 | 39003 ft | 496 kts | 47° |
| 2026-05-06 04:48 | -20.13541 | 140.36156 | 38994 ft | 496 kts | 47° |
| 2026-05-06 04:49 | -20.09724 | 140.42284 | 39001 ft | 497 kts | 48° |
| 2026-05-06 04:49 | -20.05944 | 140.48460 | 38969 ft | 497 kts | 48° |
| 2026-05-06 04:50 | -20.02192 | 140.54581 | 38991 ft | 495 kts | 48° |
| 2026-05-06 04:50 | -19.98416 | 140.60736 | 38982 ft | 496 kts | 48° |
| 2026-05-06 04:51 | -19.94657 | 140.66855 | 38984 ft | 496 kts | 48° |
| 2026-05-06 04:51 | -19.90881 | 140.72996 | 38979 ft | 496 kts | 48° |
| 2026-05-06 04:52 | -19.87105 | 140.79129 | 38950 ft | 495 kts | 49° |
| 2026-05-06 04:52 | -19.83365 | 140.85201 | 38976 ft | 493 kts | 49° |
| 2026-05-06 04:53 | -19.79601 | 140.91305 | 38970 ft | 493 kts | 48° |
| 2026-05-06 04:53 | -19.75830 | 140.97412 | 38968 ft | 493 kts | 48° |
| 2026-05-06 04:54 | -19.72066 | 141.03502 | 38965 ft | 493 kts | 48° |
| 2026-05-06 04:54 | -19.68299 | 141.09591 | 38963 ft | 493 kts | 48° |
| 2026-05-06 04:55 | -19.64551 | 141.15644 | 38957 ft | 492 kts | 48° |
| 2026-05-06 04:55 | -19.60782 | 141.21723 | 38957 ft | 492 kts | 48° |
| 2026-05-06 04:56 | -19.57034 | 141.27762 | 38949 ft | 492 kts | 48° |
| 2026-05-06 04:56 | -19.53260 | 141.33839 | 38948 ft | 492 kts | 48° |
| 2026-05-06 04:57 | -19.49489 | 141.39905 | 38946 ft | 490 kts | 49° |
| 2026-05-06 04:57 | -19.45757 | 141.45901 | 38945 ft | 490 kts | 49° |
| 2026-05-06 04:58 | -19.42008 | 141.51921 | 38943 ft | 490 kts | 49° |
| 2026-05-06 04:58 | -19.38247 | 141.57952 | 38939 ft | 490 kts | 49° |
| 2026-05-06 04:59 | -19.34490 | 141.63970 | 38935 ft | 490 kts | 49° |
| 2026-05-06 04:59 | -19.30730 | 141.69988 | 38927 ft | 489 kts | 49° |
| 2026-05-06 05:00 | -19.26996 | 141.75960 | 38933 ft | 489 kts | 49° |
| 2026-05-06 05:00 | -19.23237 | 141.81964 | 38931 ft | 489 kts | 49° |
| 2026-05-06 05:01 | -19.19470 | 141.87978 | 38924 ft | 489 kts | 49° |
| 2026-05-06 05:01 | -19.15730 | 141.93939 | 38921 ft | 489 kts | 49° |
| 2026-05-06 05:02 | -19.11968 | 141.99934 | 38894 ft | 489 kts | 48° |
| 2026-05-06 05:02 | -19.08203 | 142.05927 | 38930 ft | 488 kts | 48° |
| 2026-05-06 05:03 | -19.04461 | 142.11874 | 38913 ft | 488 kts | 48° |
| 2026-05-06 05:03 | -19.00686 | 142.17864 | 38910 ft | 488 kts | 48° |
| 2026-05-06 05:04 | -18.96922 | 142.23835 | 38914 ft | 488 kts | 48° |
| 2026-05-06 05:04 | -18.93181 | 142.29776 | 38913 ft | 488 kts | 48° |
| 2026-05-06 05:05 | -18.89422 | 142.35730 | 38910 ft | 486 kts | 48° |
| 2026-05-06 05:05 | -18.85660 | 142.41681 | 38909 ft | 486 kts | 48° |
| 2026-05-06 05:06 | -18.81923 | 142.47590 | 38914 ft | 486 kts | 48° |
| 2026-05-06 05:06 | -18.78156 | 142.53535 | 38911 ft | 486 kts | 48° |
| 2026-05-06 05:07 | -18.74411 | 142.59452 | 38909 ft | 487 kts | 48° |
| 2026-05-06 05:07 | -18.70636 | 142.65394 | 38913 ft | 486 kts | 48° |
| 2026-05-06 05:08 | -18.66873 | 142.71325 | 38914 ft | 485 kts | 48° |
| 2026-05-06 05:08 | -18.63122 | 142.77222 | 38916 ft | 486 kts | 48° |
| 2026-05-06 05:09 | -18.59384 | 142.83117 | 38913 ft | 485 kts | 48° |
| 2026-05-06 05:09 | -18.55613 | 142.89039 | 38910 ft | 486 kts | 48° |
| 2026-05-06 05:10 | -18.51845 | 142.94957 | 38916 ft | 483 kts | 48° |
| 2026-05-06 05:10 | -18.48119 | 143.00800 | 38914 ft | 483 kts | 48° |
| 2026-05-06 05:11 | -18.44378 | 143.06673 | 38914 ft | 482 kts | 48° |
| 2026-05-06 05:11 | -18.40618 | 143.12553 | 38908 ft | 482 kts | 48° |
| 2026-05-06 05:12 | -18.36872 | 143.18414 | 38912 ft | 482 kts | 48° |
| 2026-05-06 05:12 | -18.33140 | 143.24243 | 38909 ft | 482 kts | 48° |
| 2026-05-06 05:13 | -18.29359 | 143.30104 | 38907 ft | 483 kts | 48° |
| 2026-05-06 05:13 | -18.25578 | 143.35962 | 38913 ft | 483 kts | 48° |
| 2026-05-06 05:14 | -18.21816 | 143.41803 | 38908 ft | 483 kts | 48° |
| 2026-05-06 05:14 | -18.18064 | 143.47630 | 38917 ft | 483 kts | 48° |
| 2026-05-06 05:15 | -18.14291 | 143.53490 | 38912 ft | 484 kts | 48° |
| 2026-05-06 05:15 | -18.10506 | 143.59364 | 38918 ft | 484 kts | 49° |
| 2026-05-06 05:16 | -18.06707 | 143.65252 | 38903 ft | 486 kts | 49° |
| 2026-05-06 05:16 | -18.02939 | 143.71091 | 38913 ft | 485 kts | 49° |
| 2026-05-06 05:17 | -17.99139 | 143.76972 | 38909 ft | 486 kts | 49° |
| 2026-05-06 05:17 | -17.95334 | 143.82858 | 38913 ft | 486 kts | 49° |
| 2026-05-06 05:18 | -17.91550 | 143.88706 | 38911 ft | 486 kts | 49° |
| 2026-05-06 05:18 | -17.87747 | 143.94577 | 38781 ft | 484 kts | 49° |
| 2026-05-06 05:18 | -17.85850 | 143.97503 | 38442 ft | 486 kts | 49° |
| 2026-05-06 05:19 | -17.83968 | 144.00406 | 38174 ft | 485 kts | 49° |
| 2026-05-06 05:19 | -17.82065 | 144.03336 | 37966 ft | 488 kts | 49° |
| 2026-05-06 05:19 | -17.80150 | 144.06286 | 37729 ft | 489 kts | 49° |
| 2026-05-06 05:19 | -17.78232 | 144.09241 | 37456 ft | 488 kts | 49° |
| 2026-05-06 05:20 | -17.76320 | 144.12186 | 37201 ft | 487 kts | 49° |
| 2026-05-06 05:20 | -17.74405 | 144.15133 | 36961 ft | 487 kts | 49° |
| 2026-05-06 05:20 | -17.72500 | 144.18062 | 36700 ft | 487 kts | 49° |
| 2026-05-06 05:20 | -17.70583 | 144.21008 | 36452 ft | 487 kts | 49° |
| 2026-05-06 05:21 | -17.68698 | 144.23904 | 36207 ft | 487 kts | 49° |
| 2026-05-06 05:21 | -17.66783 | 144.26846 | 35969 ft | 487 kts | 49° |
| 2026-05-06 05:21 | -17.64866 | 144.29790 | 35724 ft | 487 kts | 49° |
| 2026-05-06 05:22 | -17.61037 | 144.35658 | 34943 ft | 497 kts | 49° |
| 2026-05-06 05:22 | -17.59089 | 144.38650 | 34347 ft | 494 kts | 49° |
| 2026-05-06 05:22 | -17.57141 | 144.41635 | 33618 ft | 493 kts | 49° |
| 2026-05-06 05:22 | -17.55856 | 144.43604 | 33184 ft | 493 kts | 50° |
| 2026-05-06 05:23 | -17.53272 | 144.47557 | 32288 ft | 497 kts | 50° |
| 2026-05-06 05:23 | -17.51308 | 144.50561 | 31613 ft | 502 kts | 50° |
| 2026-05-06 05:23 | -17.47332 | 144.56638 | 30271 ft | 518 kts | 51° |
| 2026-05-06 05:24 | -17.45949 | 144.58750 | 29764 ft | 521 kts | 51° |
| 2026-05-06 05:24 | -17.43905 | 144.61878 | 29106 ft | 517 kts | 52° |
| 2026-05-06 05:24 | -17.41877 | 144.64982 | 28392 ft | 514 kts | 52° |
| 2026-05-06 05:24 | -17.39876 | 144.68054 | 27732 ft | 507 kts | 52° |
| 2026-05-06 05:25 | -17.37915 | 144.71044 | 27080 ft | 499 kts | 52° |
| 2026-05-06 05:25 | -17.35962 | 144.74021 | 26423 ft | 492 kts | 52° |
| 2026-05-06 05:25 | -17.34030 | 144.76962 | 25774 ft | 485 kts | 52° |
| 2026-05-06 05:25 | -17.32130 | 144.79856 | 25129 ft | 478 kts | 53° |
| 2026-05-06 05:26 | -17.30280 | 144.82672 | 24514 ft | 472 kts | 53° |
| 2026-05-06 05:26 | -17.28429 | 144.85489 | 23886 ft | 466 kts | 53° |
| 2026-05-06 05:26 | -17.26598 | 144.88280 | 23213 ft | 460 kts | 53° |
| 2026-05-06 05:26 | -17.24802 | 144.91017 | 22661 ft | 452 kts | 53° |
| 2026-05-06 05:27 | -17.23042 | 144.93688 | 22064 ft | 449 kts | 53° |
| 2026-05-06 05:27 | -17.21271 | 144.96379 | 21479 ft | 445 kts | 53° |
| 2026-05-06 05:27 | -17.19523 | 144.99032 | 20894 ft | 441 kts | 53° |
| 2026-05-06 05:27 | -17.17787 | 145.01669 | 20307 ft | 437 kts | 53° |
| 2026-05-06 05:28 | -17.16069 | 145.04275 | 19728 ft | 433 kts | 53° |
| 2026-05-06 05:28 | -17.14369 | 145.06853 | 19166 ft | 428 kts | 53° |
| 2026-05-06 05:28 | -17.12708 | 145.09375 | 18604 ft | 424 kts | 53° |
| 2026-05-06 05:28 | -17.11039 | 145.11903 | 18022 ft | 420 kts | 53° |
| 2026-05-06 05:29 | -17.09391 | 145.14401 | 17486 ft | 415 kts | 53° |
| 2026-05-06 05:29 | -17.07753 | 145.16882 | 16940 ft | 413 kts | 53° |
| 2026-05-06 05:29 | -17.06126 | 145.19347 | 16395 ft | 410 kts | 53° |
| 2026-05-06 05:29 | -17.04509 | 145.21794 | 15841 ft | 407 kts | 53° |
| 2026-05-06 05:30 | -17.02904 | 145.24223 | 15314 ft | 404 kts | 53° |
| 2026-05-06 05:30 | -17.01312 | 145.26631 | 14783 ft | 401 kts | 53° |
| 2026-05-06 05:30 | -16.99754 | 145.28990 | 14228 ft | 391 kts | 53° |
| 2026-05-06 05:30 | -16.98269 | 145.31241 | 13658 ft | 362 kts | 53° |
| 2026-05-06 05:31 | -16.96875 | 145.33349 | 13041 ft | 344 kts | 53° |
| 2026-05-06 05:31 | -16.95529 | 145.35383 | 12882 ft | 338 kts | 53° |
| 2026-05-06 05:31 | -16.94184 | 145.37411 | 12515 ft | 338 kts | 53° |
| 2026-05-06 05:31 | -16.92861 | 145.39410 | 12030 ft | 336 kts | 53° |
| 2026-05-06 05:32 | -16.91433 | 145.41320 | 11436 ft | 330 kts | 40° |
| 2026-05-06 05:32 | -16.89540 | 145.42623 | 10906 ft | 323 kts | 24° |
| 2026-05-06 05:32 | -16.87539 | 145.43667 | 10282 ft | 316 kts | 25° |
| 2026-05-06 05:32 | -16.85629 | 145.44711 | 9625 ft | 303 kts | 26° |
| 2026-05-06 05:33 | -16.83818 | 145.45716 | 8944 ft | 294 kts | 26° |
| 2026-05-06 05:33 | -16.82028 | 145.46710 | 8288 ft | 288 kts | 27° |
| 2026-05-06 05:33 | -16.80266 | 145.47694 | 7725 ft | 284 kts | 28° |
| 2026-05-06 05:33 | -16.78524 | 145.48675 | 7266 ft | 284 kts | 29° |
| 2026-05-06 05:34 | -16.76781 | 145.49660 | 6808 ft | 284 kts | 30° |
| 2026-05-06 05:34 | -16.75049 | 145.50638 | 6355 ft | 283 kts | 30° |
| 2026-05-06 05:34 | -16.73313 | 145.51618 | 5863 ft | 283 kts | 31° |
| 2026-05-06 05:34 | -16.71620 | 145.52581 | 5503 ft | 278 kts | 31° |
| 2026-05-06 05:35 | -16.69938 | 145.53549 | 5133 ft | 273 kts | 34° |
| 2026-05-06 05:35 | -16.68529 | 145.54773 | 4841 ft | 256 kts | 43° |
| 2026-05-06 05:35 | -16.67114 | 145.55869 | 4544 ft | 250 kts | 40° |
| 2026-05-06 05:35 | -16.65998 | 145.57162 | 4177 ft | 233 kts | 69° |
| 2026-05-06 05:36 | -16.65883 | 145.58715 | 4099 ft | 205 kts | 108° |
| 2026-05-06 05:36 | -16.66445 | 145.59985 | 4096 ft | 188 kts | 118° |
| 2026-05-06 05:36 | -16.67028 | 145.61174 | 4087 ft | 181 kts | 118° |
| 2026-05-06 05:36 | -16.67601 | 145.62333 | 4101 ft | 181 kts | 119° |
| 2026-05-06 05:37 | -16.68189 | 145.63497 | 4099 ft | 181 kts | 120° |
| 2026-05-06 05:37 | -16.68778 | 145.64652 | 4106 ft | 182 kts | 119° |
| 2026-05-06 05:37 | -16.69462 | 145.65799 | 3843 ft | 190 kts | 130° |
| 2026-05-06 05:37 | -16.70352 | 145.66821 | 3466 ft | 189 kts | 136° |
| 2026-05-06 05:38 | -16.71485 | 145.67511 | 3103 ft | 189 kts | 158° |
| 2026-05-06 05:38 | -16.72660 | 145.67969 | 2880 ft | 173 kts | 154° |
| 2026-05-06 05:38 | -16.73699 | 145.68495 | 2684 ft | 160 kts | 153° |
| 2026-05-06 05:38 | -16.74704 | 145.68960 | 2475 ft | 155 kts | 154° |
| 2026-05-06 05:39 | -16.75685 | 145.69391 | 2285 ft | 151 kts | 153° |
| 2026-05-06 05:39 | -16.76642 | 145.69832 | 2093 ft | 148 kts | 154° |
| 2026-05-06 05:39 | -16.77542 | 145.70240 | 1910 ft | 138 kts | 153° |
| 2026-05-06 05:39 | -16.78401 | 145.70629 | 1734 ft | 129 kts | 154° |
| 2026-05-06 05:40 | -16.79195 | 145.70991 | 1546 ft | 120 kts | 155° |
| 2026-05-06 05:40 | -16.79960 | 145.71338 | 1406 ft | 121 kts | 152° |
| 2026-05-06 05:40 | -16.80734 | 145.71691 | 1251 ft | 121 kts | 154° |
| 2026-05-06 05:40 | -16.81509 | 145.72042 | 1111 ft | 120 kts | 152° |
| 2026-05-06 05:41 | -16.82260 | 145.72382 | 924 ft | 119 kts | 152° |
| 2026-05-06 05:41 | -16.83039 | 145.72738 | 803 ft | 124 kts | 151° |
| 2026-05-06 05:41 | -16.83849 | 145.73110 | 616 ft | 129 kts | 150° |
| 2026-05-06 05:41 | -16.84672 | 145.73486 | 477 ft | 131 kts | 153° |
| 2026-05-06 05:42 | -16.85494 | 145.73863 | 266 ft | 124 kts | 153° |
| 2026-05-06 05:42 | -16.86261 | 145.74208 | 111 ft | 121 kts | 152° |
| 2026-05-06 05:42 | -16.87028 | 145.74561 | -4 ft | 114 kts | 154° |
| 2026-05-06 05:42 | -16.87601 | 145.74815 | 19 ft | 65 kts | 156° |
| 2026-05-06 05:43 | -16.87911 | 145.74957 | 17 ft | 37 kts | 156° |
| 2026-05-06 05:43 | -16.88143 | 145.75063 | 16 ft | 36 kts | 155° |
| 2026-05-06 05:43 | -16.88332 | 145.75148 | 17 ft | 21 kts | 148° |
| 2026-05-06 05:43 | -16.88347 | 145.75244 | 16 ft | 14 kts | 66° |
| 2026-05-06 05:44 | -16.88284 | 145.75312 | 15 ft | 15 kts | 353° |
| 2026-05-06 05:44 | -16.88179 | 145.75268 | 15 ft | 18 kts | 337° |
| 2026-05-06 05:44 | -16.88059 | 145.75214 | 15 ft | 20 kts | 336° |
| 2026-05-06 05:44 | -16.87922 | 145.75151 | 15 ft | 23 kts | 336° |
| 2026-05-06 05:45 | -16.87774 | 145.75083 | 15 ft | 23 kts | 337° |
| 2026-05-06 05:45 | -16.87685 | 145.75053 | 15 ft | 11 kts | 4° |
| 2026-05-06 05:45 | -16.87641 | 145.75107 | 15 ft | 10 kts | 51° |
| 2026-05-06 05:45 | -16.87581 | 145.75116 | 15 ft | 8 kts | 11° |
| 2026-05-06 05:46 | -16.87551 | 145.75166 | 15 ft | 7 kts | 66° |
| 2026-05-06 05:46 | -16.87545 | 145.75182 | 15 ft | 1 kts | 67° |
| 2026-05-06 05:46 | -16.87542 | 145.75188 | 15 ft | 1 kts | 67° |
| 2026-05-06 05:46 | -16.87542 | 145.75189 | 15 ft | 0 kts | 68° |